createdAt,value
2023-05-19T00:01:17.973Z,9.10
2023-05-19T00:03:55.912Z,9.10
2023-05-19T00:06:27.437Z,9.10
2023-05-19T00:09:05.939Z,9.00
2023-05-19T00:11:33.324Z,9.00
2023-05-19T00:14:00.642Z,9.00
2023-05-19T00:16:31.574Z,8.90
2023-05-19T00:19:02.787Z,9.00
2023-05-19T00:21:30.180Z,8.90
2023-05-19T00:23:57.560Z,8.80
2023-05-19T00:26:26.900Z,8.80
2023-05-19T00:28:54.368Z,8.70
2023-05-19T00:31:21.293Z,8.70
2023-05-19T00:33:48.022Z,8.70
2023-05-19T00:36:14.816Z,8.70
2023-05-19T00:38:41.559Z,8.60
2023-05-19T00:41:08.293Z,8.60
2023-05-19T00:43:35.074Z,8.60
2023-05-19T00:46:02.403Z,8.50
2023-05-19T00:48:29.250Z,8.60
2023-05-19T00:51:02.382Z,8.50
2023-05-19T00:53:29.635Z,8.50
2023-05-19T00:55:56.534Z,8.50
2023-05-19T00:58:25.595Z,8.50
2023-05-19T01:00:52.930Z,8.50
2023-05-19T01:03:20.474Z,8.50
2023-05-19T01:05:53.720Z,8.50
2023-05-19T01:08:20.731Z,8.50
2023-05-19T01:10:47.464Z,8.40
2023-05-19T01:13:14.859Z,8.40
2023-05-19T01:16:12.576Z,8.40
2023-05-19T01:19:13.723Z,8.40
2023-05-19T01:22:00.961Z,8.40
2023-05-19T01:24:27.968Z,8.30
2023-05-19T01:27:21.716Z,8.30
2023-05-19T01:30:10.663Z,8.30
2023-05-19T01:32:40.800Z,8.30
2023-05-19T01:35:10.136Z,8.20
2023-05-19T01:37:39.130Z,8.20
2023-05-19T01:40:07.996Z,8.20
2023-05-19T01:42:37.824Z,8.20
2023-05-19T01:45:06.737Z,8.10
2023-05-19T01:47:38.265Z,8.10
2023-05-19T01:50:05.508Z,8.10
2023-05-19T01:52:32.860Z,8.10
2023-05-19T01:54:59.793Z,8.10
2023-05-19T01:57:48.585Z,8.00
2023-05-19T02:00:35.458Z,8.00
2023-05-19T02:03:08.049Z,8.00
2023-05-19T02:05:56.782Z,8.00
2023-05-19T02:08:43.208Z,8.00
2023-05-19T02:11:25.786Z,8.00
2023-05-19T02:13:56.331Z,7.90
2023-05-19T02:16:28.254Z,7.90
2023-05-19T02:18:56.327Z,7.90
2023-05-19T02:21:23.019Z,7.90
2023-05-19T02:23:51.017Z,7.80
2023-05-19T02:26:17.783Z,7.80
2023-05-19T02:28:44.517Z,7.80
2023-05-19T02:31:11.284Z,7.70
2023-05-19T02:33:38.047Z,7.70
2023-05-19T02:36:05.298Z,7.60
2023-05-19T02:38:32.620Z,7.60
2023-05-19T02:40:59.372Z,7.60
2023-05-19T02:43:26.092Z,7.60
2023-05-19T02:45:52.825Z,7.60
2023-05-19T02:48:19.536Z,7.60
2023-05-19T02:50:46.194Z,7.50
2023-05-19T02:53:12.882Z,7.50
2023-05-19T02:55:39.577Z,7.50
2023-05-19T02:58:06.629Z,7.50
2023-05-19T03:00:33.597Z,7.50
2023-05-19T03:03:03.131Z,7.60
2023-05-19T03:05:32.619Z,7.50
2023-05-19T03:07:59.330Z,7.50
2023-05-19T03:10:26.271Z,7.50
2023-05-19T03:12:52.976Z,7.50
2023-05-19T03:15:20.861Z,7.50
2023-05-19T03:17:47.729Z,7.40
2023-05-19T03:20:15.844Z,7.40
2023-05-19T03:22:42.568Z,7.40
2023-05-19T03:25:10.082Z,7.40
2023-05-19T03:27:36.764Z,7.40
2023-05-19T03:30:06.261Z,7.40
2023-05-19T03:32:33.864Z,7.40
2023-05-19T03:35:00.746Z,7.30
2023-05-19T03:37:27.465Z,7.40
2023-05-19T03:39:54.214Z,7.40
2023-05-19T03:42:20.952Z,7.40
2023-05-19T03:44:47.724Z,7.40
2023-05-19T03:47:14.445Z,7.40
2023-05-19T03:49:41.250Z,7.40
2023-05-19T03:52:08.026Z,7.40
2023-05-19T03:54:34.770Z,7.40
2023-05-19T03:57:02.245Z,7.50
2023-05-19T03:59:28.943Z,7.50
2023-05-19T04:01:57.815Z,7.50
2023-05-19T04:04:24.710Z,7.50
2023-05-19T04:06:51.465Z,7.50
2023-05-19T04:09:19.450Z,7.50
2023-05-19T04:11:46.423Z,7.50
2023-05-19T04:14:13.151Z,7.50
2023-05-19T04:16:40.484Z,7.60
2023-05-19T04:19:07.327Z,7.60
2023-05-19T04:21:34.061Z,7.60
2023-05-19T04:24:00.875Z,7.70
2023-05-19T04:26:30.877Z,7.70
2023-05-19T04:28:57.627Z,7.70
2023-05-19T04:31:24.754Z,7.70
2023-05-19T04:33:53.487Z,7.80
2023-05-19T04:36:21.684Z,8.00
2023-05-19T04:38:48.829Z,7.90
2023-05-19T04:41:16.747Z,8.00
2023-05-19T04:43:44.653Z,8.00
2023-05-19T04:46:13.828Z,8.10
2023-05-19T04:48:41.236Z,8.10
2023-05-19T04:51:08.036Z,8.20
2023-05-19T04:53:35.090Z,8.30
2023-05-19T04:56:02.255Z,8.40
2023-05-19T04:58:29.077Z,8.40
2023-05-19T05:00:56.005Z,8.50
2023-05-19T05:03:26.512Z,8.60
2023-05-19T05:05:53.426Z,8.60
2023-05-19T05:08:23.286Z,8.70
2023-05-19T05:10:52.382Z,8.80
2023-05-19T05:13:24.015Z,8.80
2023-05-19T05:15:52.265Z,8.90
2023-05-19T05:18:19.259Z,8.90
2023-05-19T05:20:47.002Z,9.00
2023-05-19T05:23:16.947Z,9.00
2023-05-19T05:25:44.891Z,9.10
2023-05-19T05:28:11.729Z,9.10
2023-05-19T05:30:38.523Z,9.20
2023-05-19T05:33:06.272Z,9.30
2023-05-19T05:35:33.377Z,9.40
2023-05-19T05:38:01.652Z,9.50
2023-05-19T05:40:28.493Z,9.80
2023-05-19T05:42:55.750Z,10.20
2023-05-19T05:45:25.780Z,10.80
2023-05-19T05:47:53.001Z,11.60
2023-05-19T05:50:20.132Z,12.60
2023-05-19T05:52:47.963Z,13.50
2023-05-19T05:55:17.497Z,14.50
2023-05-19T05:57:44.311Z,15.40
2023-05-19T06:00:15.581Z,16.00
2023-05-19T06:02:44.827Z,16.60
2023-05-19T06:05:12.427Z,16.90
2023-05-19T06:07:39.966Z,17.20
2023-05-19T06:10:08.692Z,17.30
2023-05-19T06:12:35.562Z,17.40
2023-05-19T06:15:05.772Z,17.40
2023-05-19T06:17:40.278Z,17.60
2023-05-19T06:20:08.818Z,17.90
2023-05-19T06:22:36.207Z,18.20
2023-05-19T06:25:03.671Z,18.50
2023-05-19T06:27:32.559Z,18.70
2023-05-19T06:30:01.133Z,18.90
2023-05-19T06:32:29.728Z,18.70
2023-05-19T06:34:56.642Z,19.00
2023-05-19T06:37:23.920Z,19.40
2023-05-19T06:39:53.479Z,19.80
2023-05-19T06:42:22.664Z,20.10
2023-05-19T06:44:50.347Z,20.70
2023-05-19T06:47:20.355Z,21.30
2023-05-19T06:49:50.678Z,22.00
2023-05-19T06:52:17.967Z,22.50
2023-05-19T06:54:44.679Z,22.80
2023-05-19T06:57:11.392Z,23.10
2023-05-19T06:59:40.796Z,23.20
2023-05-19T07:02:08.070Z,23.40
2023-05-19T07:04:35.677Z,23.10
2023-05-19T07:07:03.072Z,23.20
2023-05-19T07:09:29.966Z,23.40
2023-05-19T07:11:57.931Z,23.40
2023-05-19T07:14:25.438Z,23.50
2023-05-19T07:16:52.786Z,24.00
2023-05-19T07:19:20.332Z,24.30
2023-05-19T07:21:47.874Z,24.60
2023-05-19T07:24:15.103Z,24.60
2023-05-19T07:26:43.315Z,24.40
2023-05-19T07:29:10.524Z,23.70
2023-05-19T07:31:37.604Z,23.20
2023-05-19T07:34:05.075Z,22.80
2023-05-19T07:36:32.302Z,22.90
2023-05-19T07:38:59.200Z,23.10
2023-05-19T07:41:26.485Z,23.50
2023-05-19T07:43:56.458Z,23.80
2023-05-19T07:46:23.426Z,24.20
2023-05-19T07:48:50.371Z,24.50
2023-05-19T07:51:17.423Z,24.90
2023-05-19T07:53:44.173Z,25.10
2023-05-19T07:56:10.907Z,24.90
2023-05-19T07:58:37.710Z,24.70
2023-05-19T08:01:04.670Z,24.80
2023-05-19T08:03:32.118Z,24.90
2023-05-19T08:05:59.034Z,24.70
2023-05-19T08:08:25.851Z,24.50
2023-05-19T08:10:52.601Z,24.70
2023-05-19T08:13:19.326Z,24.70
2023-05-19T08:15:46.128Z,24.70
2023-05-19T08:18:12.949Z,24.70
2023-05-19T08:20:39.694Z,24.30
2023-05-19T08:23:06.488Z,23.80
2023-05-19T08:25:33.303Z,23.30
2023-05-19T08:28:00.069Z,23.00
2023-05-19T08:30:26.934Z,23.00
2023-05-19T08:32:53.704Z,23.30
2023-05-19T08:35:20.562Z,23.40
2023-05-19T08:37:47.664Z,23.50
2023-05-19T08:40:17.701Z,23.60
2023-05-19T08:42:47.946Z,23.60
2023-05-19T08:45:14.687Z,23.50
2023-05-19T08:47:42.855Z,23.30
2023-05-19T08:50:13.036Z,23.10
2023-05-19T08:53:03.968Z,22.80
2023-05-19T08:55:36.591Z,22.70
2023-05-19T08:58:04.833Z,22.50
2023-05-19T09:00:32.643Z,22.40
2023-05-19T09:03:16.855Z,22.50
2023-05-19T09:05:46.570Z,22.50
2023-05-19T09:08:13.774Z,22.70
2023-05-19T09:10:40.906Z,22.70
2023-05-19T09:13:07.742Z,22.10
2023-05-19T09:15:36.808Z,21.80
2023-05-19T09:18:12.411Z,21.60
2023-05-19T09:20:46.172Z,21.40
2023-05-19T09:23:15.023Z,21.30
2023-05-19T09:25:54.370Z,21.00
2023-05-19T09:28:29.553Z,20.70
2023-05-19T09:31:06.722Z,20.60
2023-05-19T09:33:39.384Z,20.60
2023-05-19T09:36:08.336Z,20.80
2023-05-19T09:38:36.200Z,21.00
2023-05-19T09:41:03.529Z,21.20
2023-05-19T09:43:31.737Z,21.20
2023-05-19T09:46:06.687Z,21.00
2023-05-19T09:48:34.661Z,21.00
2023-05-19T09:51:02.366Z,21.00
2023-05-19T09:53:34.197Z,21.10
2023-05-19T09:56:03.371Z,21.30
2023-05-19T09:58:35.463Z,21.50
2023-05-19T10:01:03.731Z,21.80
2023-05-19T10:03:32.928Z,21.90
2023-05-19T10:06:01.510Z,22.00
2023-05-19T10:08:30.300Z,21.90
2023-05-19T10:10:57.949Z,21.80
2023-05-19T10:13:25.399Z,21.80
2023-05-19T10:15:58.927Z,21.90
2023-05-19T10:18:27.343Z,22.10
2023-05-19T10:20:54.756Z,22.20
2023-05-19T10:23:22.313Z,22.20
2023-05-19T10:25:52.373Z,22.30
2023-05-19T10:28:23.598Z,22.50
2023-05-19T10:30:53.256Z,22.60
2023-05-19T10:33:28.881Z,22.60
2023-05-19T10:36:25.553Z,22.40
2023-05-19T10:39:05.612Z,22.00
2023-05-19T10:41:53.696Z,21.80
2023-05-19T10:44:44.173Z,21.80
2023-05-19T10:47:12.257Z,21.90
2023-05-19T10:49:49.788Z,21.90
2023-05-19T10:52:25.702Z,21.90
2023-05-19T10:54:54.827Z,21.90
2023-05-19T10:57:28.648Z,22.00
2023-05-19T10:59:57.226Z,22.00
2023-05-19T11:02:42.864Z,22.00
2023-05-19T11:05:16.574Z,22.00
2023-05-19T11:07:45.071Z,22.00
2023-05-19T11:10:12.389Z,22.10
2023-05-19T11:12:45.514Z,22.10
2023-05-19T11:15:16.687Z,22.20
2023-05-19T11:17:48.467Z,22.20
2023-05-19T11:20:30.006Z,22.20
2023-05-19T11:23:17.990Z,22.20
2023-05-19T11:25:49.700Z,22.10
2023-05-19T11:28:19.645Z,22.20
2023-05-19T11:30:51.868Z,22.40
2023-05-19T11:33:20.189Z,22.60
2023-05-19T11:35:51.474Z,22.60
2023-05-19T11:38:19.746Z,22.70
2023-05-19T11:40:48.127Z,22.50
2023-05-19T11:43:15.108Z,22.50
2023-05-19T11:45:42.600Z,22.70
2023-05-19T11:48:13.405Z,22.60
2023-05-19T11:50:44.217Z,22.50
2023-05-19T11:53:15.230Z,22.40
2023-05-19T11:55:45.020Z,22.50
2023-05-19T11:58:12.318Z,22.50
2023-05-19T12:00:40.876Z,22.50
2023-05-19T12:03:09.692Z,22.50
2023-05-19T12:05:42.833Z,22.60
2023-05-19T12:08:11.471Z,22.60
2023-05-19T12:10:45.316Z,22.70
2023-05-19T12:13:12.810Z,22.90
2023-05-19T12:15:39.767Z,22.90
2023-05-19T12:18:09.849Z,22.90
2023-05-19T12:20:37.466Z,23.00
2023-05-19T12:23:04.768Z,23.00
2023-05-19T12:25:32.463Z,23.00
2023-05-19T12:28:03.326Z,23.10
2023-05-19T12:30:31.781Z,23.30
2023-05-19T12:32:59.209Z,23.30
2023-05-19T12:35:30.508Z,23.40
2023-05-19T12:37:57.850Z,23.20
2023-05-19T12:40:25.822Z,23.20
2023-05-19T12:42:58.928Z,23.20
2023-05-19T12:45:28.140Z,23.30
2023-05-19T12:47:55.086Z,23.40
2023-05-19T12:50:22.145Z,23.50
2023-05-19T12:52:53.262Z,23.60
2023-05-19T12:55:21.000Z,23.60
2023-05-19T12:57:56.960Z,23.30
2023-05-19T13:00:29.169Z,23.30
2023-05-19T13:02:59.945Z,23.30
2023-05-19T13:05:28.360Z,23.40
2023-05-19T13:08:00.852Z,23.50
2023-05-19T13:10:34.703Z,23.60
2023-05-19T13:13:02.145Z,23.50
2023-05-19T13:15:39.927Z,23.30
2023-05-19T13:18:09.393Z,23.10
2023-05-19T13:20:38.115Z,23.00
2023-05-19T13:23:05.839Z,23.00
2023-05-19T13:25:34.272Z,23.00
2023-05-19T13:28:03.970Z,22.90
2023-05-19T13:30:31.585Z,23.00
2023-05-19T13:32:58.799Z,23.20
2023-05-19T13:35:25.731Z,23.40
2023-05-19T13:37:52.444Z,23.50
2023-05-19T13:40:19.357Z,23.70
2023-05-19T13:42:46.432Z,23.90
2023-05-19T13:45:13.671Z,23.90
2023-05-19T13:47:40.718Z,24.00
2023-05-19T13:50:07.753Z,24.20
2023-05-19T13:52:34.466Z,24.10
2023-05-19T13:55:01.240Z,24.20
2023-05-19T13:57:27.983Z,24.30
2023-05-19T14:00:02.483Z,24.30
2023-05-19T14:02:30.940Z,24.20
2023-05-19T14:04:57.983Z,24.20
2023-05-19T14:07:25.765Z,24.30
2023-05-19T14:09:52.827Z,24.40
2023-05-19T14:12:21.586Z,24.60
2023-05-19T14:14:52.189Z,24.50
2023-05-19T14:17:19.000Z,24.50
2023-05-19T14:19:45.731Z,24.40
2023-05-19T14:22:13.433Z,24.20
2023-05-19T14:24:41.552Z,24.20
2023-05-19T14:27:08.303Z,24.30
2023-05-19T14:29:35.452Z,24.30
2023-05-19T14:32:03.154Z,24.50
2023-05-19T14:34:30.386Z,24.40
2023-05-19T14:36:57.165Z,24.50
2023-05-19T14:39:23.891Z,24.30
2023-05-19T14:41:51.963Z,24.20
2023-05-19T14:44:18.942Z,24.10
2023-05-19T14:46:45.778Z,24.10
2023-05-19T14:49:12.558Z,24.10
2023-05-19T14:51:39.306Z,23.90
2023-05-19T14:54:06.094Z,23.70
2023-05-19T14:56:32.795Z,23.70
2023-05-19T14:58:59.509Z,23.70
2023-05-19T15:01:26.705Z,23.80
2023-05-19T15:03:53.586Z,24.20
2023-05-19T15:06:20.586Z,24.10
2023-05-19T15:08:47.412Z,23.90
2023-05-19T15:11:14.153Z,23.70
2023-05-19T15:13:40.984Z,23.60
2023-05-19T15:16:17.765Z,23.50
2023-05-19T15:18:45.311Z,23.30
2023-05-19T15:21:12.260Z,23.30
2023-05-19T15:23:38.999Z,23.30
2023-05-19T15:26:06.629Z,23.10
2023-05-19T15:28:34.208Z,23.20
2023-05-19T15:31:00.990Z,23.30
2023-05-19T15:33:27.799Z,23.30
2023-05-19T15:35:54.647Z,23.30
2023-05-19T15:38:21.422Z,23.30
2023-05-19T15:40:48.281Z,23.20
2023-05-19T15:43:15.164Z,23.20
2023-05-19T15:45:42.011Z,23.30
2023-05-19T15:48:08.862Z,23.40
2023-05-19T15:50:36.582Z,23.50
2023-05-19T15:53:03.574Z,23.60
2023-05-19T15:55:30.528Z,23.60
2023-05-19T15:57:57.295Z,23.50
2023-05-19T16:00:24.186Z,23.60
2023-05-19T16:02:51.199Z,23.70
2023-05-19T16:05:18.295Z,23.60
2023-05-19T16:07:45.175Z,23.70
2023-05-19T16:10:12.071Z,23.70
2023-05-19T16:12:38.868Z,23.60
2023-05-19T16:15:06.055Z,23.40
2023-05-19T16:17:32.980Z,23.30
2023-05-19T16:19:59.732Z,23.10
2023-05-19T16:22:27.146Z,23.00
2023-05-19T16:24:53.820Z,22.80
2023-05-19T16:27:20.697Z,22.70
2023-05-19T16:29:47.522Z,22.60
2023-05-19T16:32:14.449Z,22.50
2023-05-19T16:34:41.244Z,22.40
2023-05-19T16:37:07.935Z,22.30
2023-05-19T16:39:36.963Z,22.30
2023-05-19T16:42:04.696Z,22.20
2023-05-19T16:44:31.464Z,22.10
2023-05-19T16:46:58.342Z,22.10
2023-05-19T16:49:25.091Z,22.30
2023-05-19T16:51:53.147Z,22.30
2023-05-19T16:54:20.928Z,22.40
2023-05-19T16:56:47.961Z,22.40
2023-05-19T16:59:14.716Z,22.20
2023-05-19T17:01:41.538Z,22.10
2023-05-19T17:04:08.483Z,22.00
2023-05-19T17:06:35.866Z,21.90
2023-05-19T17:09:02.683Z,21.80
2023-05-19T17:11:29.545Z,21.70
2023-05-19T17:13:56.414Z,21.60
2023-05-19T17:16:23.788Z,21.60
2023-05-19T17:18:51.102Z,21.50
2023-05-19T17:21:17.951Z,21.30
2023-05-19T17:23:44.642Z,21.10
2023-05-19T17:26:11.549Z,21.10
2023-05-19T17:28:38.337Z,21.10
2023-05-19T17:31:15.852Z,21.10
2023-05-19T17:33:42.625Z,21.10
2023-05-19T17:36:09.508Z,21.10
2023-05-19T17:38:40.241Z,21.00
2023-05-19T17:41:11.037Z,20.90
2023-05-19T17:43:38.769Z,20.70
2023-05-19T17:46:06.152Z,20.70
2023-05-19T17:48:33.382Z,20.70
2023-05-19T17:51:00.451Z,20.60
2023-05-19T17:53:27.617Z,20.70
2023-05-19T17:55:59.535Z,20.60
2023-05-19T17:58:27.639Z,20.60
2023-05-19T18:00:55.277Z,20.60
2023-05-19T18:03:23.100Z,20.70
2023-05-19T18:05:51.193Z,20.60
2023-05-19T18:08:18.277Z,20.50
2023-05-19T18:10:46.195Z,20.40
2023-05-19T18:13:14.388Z,20.30
2023-05-19T18:15:41.869Z,20.40
2023-05-19T18:18:13.588Z,20.40
2023-05-19T18:20:44.362Z,20.30
2023-05-19T18:23:11.413Z,20.30
2023-05-19T18:25:38.437Z,20.10
2023-05-19T18:28:05.425Z,20.00
2023-05-19T18:30:32.494Z,19.90
2023-05-19T18:33:02.213Z,19.90
2023-05-19T18:35:29.215Z,19.80
2023-05-19T18:37:59.421Z,19.80
2023-05-19T18:40:26.284Z,19.70
2023-05-19T18:42:53.069Z,19.60
2023-05-19T18:45:19.902Z,19.50
2023-05-19T18:47:46.858Z,19.40
2023-05-19T18:50:14.579Z,19.20
2023-05-19T18:52:43.528Z,19.10
2023-05-19T18:55:10.494Z,19.00
2023-05-19T18:57:37.411Z,18.90
2023-05-19T19:00:07.404Z,18.80
2023-05-19T19:02:34.252Z,18.70
2023-05-19T19:05:01.580Z,18.60
2023-05-19T19:07:28.709Z,18.40
2023-05-19T19:10:07.786Z,18.30
2023-05-19T19:12:34.837Z,18.30
2023-05-19T19:15:06.363Z,18.20
2023-05-19T19:17:33.360Z,18.10
2023-05-19T19:20:00.510Z,18.10
2023-05-19T19:22:30.884Z,18.00
2023-05-19T19:24:57.802Z,17.90
2023-05-19T19:27:26.409Z,17.80
2023-05-19T19:30:01.534Z,17.70
2023-05-19T19:32:28.542Z,17.70
2023-05-19T19:34:55.799Z,17.50
2023-05-19T19:37:22.658Z,17.50
2023-05-19T19:39:52.727Z,17.30
2023-05-19T19:42:19.750Z,17.30
2023-05-19T19:44:48.842Z,17.20
2023-05-19T19:47:18.083Z,17.20
2023-05-19T19:49:46.184Z,17.00
2023-05-19T19:52:15.748Z,17.10
2023-05-19T19:54:45.766Z,16.90
2023-05-19T19:57:17.390Z,16.90
2023-05-19T19:59:44.457Z,16.80
2023-05-19T20:02:14.492Z,16.70
2023-05-19T20:04:41.616Z,16.60
2023-05-19T20:07:08.500Z,16.60
2023-05-19T20:09:35.834Z,16.50
2023-05-19T20:12:02.681Z,16.40
2023-05-19T20:14:29.901Z,16.30
2023-05-19T20:16:56.748Z,16.20
2023-05-19T20:19:25.633Z,16.20
2023-05-19T20:21:54.820Z,16.10
2023-05-19T20:24:21.722Z,16.10
2023-05-19T20:26:51.437Z,16.00
2023-05-19T20:29:18.221Z,15.90
2023-05-19T20:31:48.434Z,15.90
2023-05-19T20:34:17.716Z,15.90
2023-05-19T20:36:44.699Z,15.80
2023-05-19T20:39:11.685Z,15.70
2023-05-19T20:41:38.490Z,15.70
2023-05-19T20:44:06.363Z,15.60
2023-05-19T20:46:35.138Z,15.50
2023-05-19T20:49:05.197Z,15.50
2023-05-19T20:51:32.790Z,15.30
2023-05-19T20:54:00.183Z,15.40
2023-05-19T20:56:27.095Z,15.30
2023-05-19T20:58:54.062Z,15.20
2023-05-19T21:01:24.285Z,15.10
2023-05-19T21:03:51.351Z,15.10
2023-05-19T21:06:18.104Z,15.00
2023-05-19T21:08:46.268Z,15.00
2023-05-19T21:11:13.032Z,15.00
2023-05-19T21:13:39.873Z,14.90
2023-05-19T21:16:07.457Z,14.80
2023-05-19T21:18:34.936Z,14.80
2023-05-19T21:21:03.851Z,14.80
2023-05-19T21:23:31.042Z,14.60
2023-05-19T21:25:59.647Z,14.60
2023-05-19T21:28:26.514Z,14.60
2023-05-19T21:30:53.273Z,14.60
2023-05-19T21:33:20.054Z,14.60
2023-05-19T21:35:46.970Z,14.50
2023-05-19T21:38:23.490Z,14.50
2023-05-19T21:40:50.984Z,14.50
2023-05-19T21:43:17.777Z,14.50
2023-05-19T21:45:44.526Z,14.40
2023-05-19T21:48:11.519Z,14.40
2023-05-19T21:50:38.959Z,14.30
2023-05-19T21:53:05.763Z,14.30
2023-05-19T21:55:32.572Z,14.20
2023-05-19T21:58:01.572Z,14.20
2023-05-19T22:00:29.264Z,14.10
2023-05-19T22:02:56.201Z,14.10
2023-05-19T22:05:23.017Z,14.10
2023-05-19T22:07:49.740Z,14.00
2023-05-19T22:10:16.567Z,14.00
2023-05-19T22:12:43.476Z,14.00
2023-05-19T22:15:11.187Z,14.00
2023-05-19T22:17:38.054Z,13.90
2023-05-19T22:20:08.103Z,13.90
2023-05-19T22:22:35.283Z,13.80
2023-05-19T22:25:03.522Z,13.80
2023-05-19T22:27:30.703Z,13.80
2023-05-19T22:29:59.606Z,13.70
2023-05-19T22:32:26.472Z,13.70
2023-05-19T22:34:53.376Z,13.60
2023-05-19T22:37:23.199Z,13.60
2023-05-19T22:39:49.899Z,13.60
2023-05-19T22:42:16.598Z,13.50
2023-05-19T22:44:43.462Z,13.50
2023-05-19T22:47:13.526Z,13.50
2023-05-19T22:49:43.727Z,13.40
2023-05-19T22:52:11.373Z,13.40
2023-05-19T22:54:38.413Z,13.40
2023-05-19T22:57:05.488Z,13.30
2023-05-19T22:59:32.229Z,13.30
2023-05-19T23:01:58.962Z,13.20
2023-05-19T23:04:46.091Z,13.20
2023-05-19T23:07:12.849Z,13.20
2023-05-19T23:09:39.700Z,13.10
2023-05-19T23:12:06.989Z,13.00
2023-05-19T23:14:33.762Z,13.00
2023-05-19T23:17:00.514Z,13.00
2023-05-19T23:19:28.347Z,12.90
2023-05-19T23:21:55.305Z,12.90
2023-05-19T23:24:21.964Z,12.80
2023-05-19T23:26:48.765Z,12.80
2023-05-19T23:29:15.484Z,12.80
2023-05-19T23:31:42.342Z,12.80
2023-05-19T23:34:09.289Z,12.70
2023-05-19T23:36:36.624Z,12.60
2023-05-19T23:39:03.548Z,12.60
2023-05-19T23:41:30.424Z,12.60
2023-05-19T23:43:57.152Z,12.50
2023-05-19T23:46:23.960Z,12.50
2023-05-19T23:48:50.773Z,12.50
2023-05-19T23:51:17.511Z,12.50
2023-05-19T23:53:44.190Z,12.40
2023-05-19T23:56:11.293Z,12.50
2023-05-19T23:58:38.012Z,12.30
